地図

経路データ

SID SEASON NUMBER BASIN SUBBASIN NAME ISO_TIME NATURE LAT LON WMO_WIND WMO_PRES WMO_AGENCY TRACK_TYPE DIST2LAND LANDFALL IFLAG USA_AGENCY USA_ATCF_ID USA_LAT USA_LON USA_RECORD USA_STATUS USA_WIND USA_PRES USA_SSHS USA_R34_NE USA_R34_SE USA_R34_SW USA_R34_NW USA_R50_NE USA_R50_SE USA_R50_SW USA_R50_NW USA_R64_NE USA_R64_SE USA_R64_SW USA_R64_NW USA_POCI USA_ROCI USA_RMW USA_EYE TOKYO_LAT TOKYO_LON TOKYO_GRADE TOKYO_WIND TOKYO_PRES TOKYO_R50_DIR TOKYO_R50_LONG TOKYO_R50_SHORT TOKYO_R30_DIR TOKYO_R30_LONG TOKYO_R30_SHORT TOKYO_LAND CMA_LAT CMA_LON CMA_CAT CMA_WIND CMA_PRES HKO_LAT HKO_LON HKO_CAT HKO_WIND HKO_PRES NEWDELHI_LAT NEWDELHI_LON NEWDELHI_GRADE NEWDELHI_WIND NEWDELHI_PRES NEWDELHI_CI NEWDELHI_DP NEWDELHI_POCI REUNION_LAT REUNION_LON REUNION_TYPE REUNION_WIND REUNION_PRES REUNION_TNUM REUNION_CI REUNION_RMW REUNION_R34_NE REUNION_R34_SE REUNION_R34_SW REUNION_R34_NW REUNION_R50_NE REUNION_R50_SE REUNION_R50_SW REUNION_R50_NW REUNION_R64_NE REUNION_R64_SE REUNION_R64_SW REUNION_R64_NW BOM_LAT BOM_LON BOM_TYPE BOM_WIND BOM_PRES BOM_TNUM BOM_CI BOM_RMW BOM_R34_NE BOM_R34_SE BOM_R34_SW BOM_R34_NW BOM_R50_NE BOM_R50_SE BOM_R50_SW BOM_R50_NW BOM_R64_NE BOM_R64_SE BOM_R64_SW BOM_R64_NW BOM_ROCI BOM_POCI BOM_EYE BOM_POS_METHOD BOM_PRES_METHOD NADI_LAT NADI_LON NADI_CAT NADI_WIND NADI_PRES WELLINGTON_LAT WELLINGTON_LON WELLINGTON_WIND WELLINGTON_PRES DS824_LAT DS824_LON DS824_STAGE DS824_WIND DS824_PRES TD9636_LAT TD9636_LON TD9636_STAGE TD9636_WIND TD9636_PRES TD9635_LAT TD9635_LON TD9635_WIND TD9635_PRES TD9635_ROCI NEUMANN_LAT NEUMANN_LON NEUMANN_CLASS NEUMANN_WIND NEUMANN_PRES MLC_LAT MLC_LON MLC_CLASS MLC_WIND MLC_PRES USA_GUST BOM_GUST BOM_GUST_PER REUNION_GUST REUNION_GUST_PER USA_SEAHGT USA_SEARAD_NE USA_SEARAD_SE USA_SEARAD_SW USA_SEARAD_NW STORM_SPEED STORM_DIR
1967314S05163 1968 135 SP MM ANNIE 1967-11-09 12:00:00 TS -5.00000 163.200 main 464 440 O________OO___ jtwc_sh SH011968 -5.00000 163.200 -1 -5.00000 163.200 TC -5.00000 163.200 4 9 264
1967314S05163 1968 135 SP MM ANNIE 1967-11-09 15:00:00 TS -5.04463 162.743 main 434 405 P________PP___ SH011968 -5.04257 162.738 -1 -5.04257 162.738 TC -5.04875 162.753 4 9 263
1967314S05163 1968 135 SP MM ANNIE 1967-11-09 18:00:00 TS -5.10262 162.308 main 405 378 O________OP___ jtwc_sh SH011968 -5.10000 162.300 -1 -5.10000 162.300 TC -5.10785 162.325 4 8 260
1967314S05163 1968 135 SP MM ANNIE 1967-11-09 21:00:00 TS -5.18600 161.920 main 378 358 P________PP___ SH011968 -5.18498 161.913 -1 -5.18498 161.913 TC -5.18802 161.934 4 7 254
1967314S05163 1968 135 SP MM ANNIE 1967-11-10 00:00:00 TS -5.30000 161.600 main 358 347 O________OO___ jtwc_sh SH011968 -5.30000 161.600 -1 -5.30000 161.600 TC -5.30000 161.600 4 4 220
1967314S05163 1968 135 SP MM ANNIE 1967-11-10 02:00:00 TS -5.43231 161.708 1000 bom main 350 343 P_____O__PP___ SH011968 -5.39207 161.443 -1 -5.90000 165.000 1000 -5.39207 161.443 TC -5.39588 161.416 4 7 131
1967314S05163 1968 135 SP MM ANNIE 1967-11-10 03:00:00 TS -5.51102 161.849 main 343 325 P_____P__PP___ SH011968 -5.44247 161.377 -1 -5.91007 164.764 1000 -5.44247 161.377 TC -5.44861 161.334 4 5 140
1967314S05163 1968 135 SP MM ANNIE 1967-11-10 06:00:00 TS -5.68635 161.924 main 325 311 O_____P__OP_O_ jtwc_sh SH011968 -5.60000 161.200 -1 -5.94077 164.059 1000 -5.60000 161.200 TC -5.61483 161.125 4 -5.90000 164.500 TC 30 1000 3 186
1967314S05163 1968 135 SP MM ANNIE 1967-11-10 09:00:00 TS -5.83765 161.821 main 311 297 P_____P__PP_P_ SH011968 -5.77250 160.993 -1 -5.97444 163.360 1000 -5.77250 160.993 TC -5.77365 160.953 4 -5.95270 163.790 TC 30 1000 4 227
1967314S05163 1968 135 SP MM ANNIE 1967-11-10 11:00:00 TS -5.91287 161.677 1000 bom main 297 297 P_____O__PP_P_ SH011968 -5.86713 160.861 -1 -6.00000 162.900 1000 -5.86713 160.861 TC -5.86304 160.850 4 -5.98511 163.327 TC 30 1000 3 231
1967314S05163 1968 135 SP MM ANNIE 1967-11-10 12:00:00 TS -5.94554 161.685 main 297 276 O_____P__OO_O_ jtwc_sh SH011968 -5.90000 160.800 -1 -6.01406 162.672 999 -5.90000 160.800 TC -5.90000 160.800 4 -6.00000 163.100 TC 30 1000 5 258
1967314S05163 1968 135 SP MM ANNIE 1967-11-10 15:00:00 TS -5.98342 161.350 main 276 269 P_____P__PP_P_ SH011968 -5.91499 160.642 -1 -6.06407 162.000 999 -5.91499 160.642 TC -5.92826 160.684 4 -6.04240 162.442 TC 30 999 7 264
1967314S05163 1968 135 SP MM ANNIE 1967-11-10 18:00:00 TS -6.01635 160.999 main 269 256 O_____P__OP_O_ jtwc_sh SH011968 -5.90000 160.500 -1 -6.13120 161.345 998 -5.90000 160.500 TC -5.92721 160.575 4 -6.10000 161.800 TC 30 999 7 262
1967314S05163 1968 135 SP MM ANNIE 1967-11-10 21:00:00 TS -6.07796 160.630 main 250 239 P_____P__PP_P_ SH011968 -5.91995 160.387 -1 -6.22240 160.710 998 -5.91995 160.387 TC -5.93757 160.428 4 -6.18495 161.142 TC 32 998 8 259
1967314S05163 1968 135 SP MM ANNIE 1967-11-10 23:00:00 TS -6.13588 160.360 998 bom main 239 220 P_____O__PP_P_ SH011968 -5.96355 160.279 -1 -6.30000 160.300 998 -5.96355 160.279 TC -5.97090 160.288 4 -6.25831 160.711 TC 34 998 8 257
1967314S05163 1968 135 SP MM ANNIE 1967-11-11 00:00:00 TS -6.17352 160.217 main 220 189 O_____P__OO_O_ jtwc_sh SH011968 -6.00000 160.200 -1 -6.34109 160.099 998 -6.00000 160.200 TC -6.00000 160.200 4 -6.30000 160.500 TC 35 998 10 253
1967314S05163 1968 135 SP EA ANNIE 1967-11-11 03:00:00 TS -6.32468 159.744 main 182 139 P_____P__PP_P_ SH011968 -6.17000 159.852 -1 -6.48502 159.515 998 -6.17000 159.852 TC -6.15130 159.852 4 -6.43493 159.885 TC 35 998 10 251
1967314S05163 1968 135 SP EA ANNIE 1967-11-11 06:00:00 TS -6.51910 159.233 main 135 100 O_____P__OP_O_ jtwc_sh SH011968 -6.40000 159.400 -1 -6.65751 158.946 998 -6.40000 159.400 TC -6.36005 159.420 4 -6.60000 159.300 TC 35 998 11 248
1967314S05163 1968 135 SP EA ANNIE 1967-11-11 09:00:00 TS -6.73462 158.712 main 100 79 P_____P__PP_P_ SH011968 -6.63497 158.922 -1 -6.85546 158.381 998 -6.63497 158.922 TC -6.61375 158.927 4 -6.78489 158.750 TC 35 998 11 247
1967314S05163 1968 135 SP EA ANNIE 1967-11-11 11:00:00 TS -6.89462 158.352 998 bom main 79 74 P_____O__PP_P_ SH011968 -6.80831 158.578 -1 -7.00000 158.000 998 -6.80831 158.578 TC -6.80173 158.578 4 -6.92494 158.386 TC 35 998 12 246
1967314S05163 1968 135 SP EA ANNIE 1967-11-11 12:00:00 TS -6.97681 158.168 main 74 22 O_____P__OO_O_ jtwc_sh SH011968 -6.90000 158.400 -1 -7.06084 157.809 998 -6.90000 158.400 TC -6.90000 158.400 4 -7.00000 158.200 TC 35 998 12 246
1967314S05163 1968 135 SP EA ANNIE 1967-11-11 15:00:00 TS -7.22206 157.608 main 22 0 P_____P__PP_P_ SH011968 -7.18496 157.857 -1 -7.25488 157.234 998 -7.18496 157.857 TC -7.15168 157.866 4 -7.24245 157.607 TC 35 998 12 245
1967314S05163 1968 135 SP EA ANNIE 1967-11-11 18:00:00 TS -7.49675 157.031 main 15 15 O_____P__OP_O_ jtwc_sh SH011968 -7.50000 157.300 -1 -7.48328 156.645 998 -7.50000 157.300 TC -7.43769 157.307 4 -7.50000 157.000 TC 35 998 13 244
1967314S05163 1968 135 SP EA ANNIE 1967-11-11 21:00:00 TS -7.78683 156.452 main 78 78 P_____P__PP_P_ SH011968 -7.80497 156.742 -1 -7.76803 156.030 998 -7.80497 156.742 TC -7.77982 156.744 4 -7.71232 156.422 TC 35 998 13 241
1967314S05163 1968 135 SP EA ANNIE 1967-11-11 23:00:00 TS -8.01977 156.061 998 bom main 125 127 P_____O__PP_P_ SH011968 -8.05214 156.378 -1 -8.00000 155.600 998 -8.05214 156.378 TC -8.04990 156.378 4 -7.88801 156.017 TC 35 998 14 238
1967314S05163 1968 135 SP EA ANNIE 1967-11-12 00:00:00 TS -8.15743 155.858 main 143 143 O_____P__OO_O_ jtwc_sh SH011968 -8.20000 156.200 -1 -8.14458 155.348 997 -8.20000 156.200 TC -8.20000 156.200 4 -8.00000 155.800 TC 35 998 16 232
1967314S05163 1968 135 SP EA ANNIE 1967-11-12 03:00:00 TS -8.66601 155.237 main 209 209 P_____P__PP_P_ SH011968 -8.76245 155.685 -1 -8.63808 154.553 994 -8.76245 155.685 TC -8.75261 155.752 4 -8.46253 155.065 TC 37 996 16 228
1967314S05163 1968 135 SP EA ANNIE 1967-11-12 06:00:00 TS -9.24019 154.620 main 284 284 O_____P__OP_O_ jtwc_sh SH011968 -9.40000 155.200 -1 -9.17418 153.764 991 -9.40000 155.200 TC -9.37622 155.317 4 -9.00000 154.300 TC 40 994 16 226
1967314S05163 1968 135 SP EA ANNIE 1967-11-12 09:00:00 TS -9.81202 154.048 main 365 328 P_____P__PP_P_ SH011968 -10.0296 154.795 -1 -9.69299 153.069 988 -10.0296 154.795 TC -10.0118 154.848 4 -9.51504 153.548 TC 42 992 16 225
1967314S05163 1968 135 SP EA ANNIE 1967-11-12 11:00:00 TS -10.1725 153.677 987 bom main 328 306 P_____O__PP_P_ SH011968 -10.4226 154.487 -1 -10.0000 152.700 987 -10.4226 154.487 TC -10.4129 154.495 4 -9.84478 153.096 TC 44 990 15 226
1967314S05163 1968 135 SP EA ANNIE 1967-11-12 12:00:00 TS -10.3376 153.493 main 306 240 O_____P__OO_O_ jtwc_sh SH011968 -10.6000 154.300 -1 -10.1258 152.561 986 -10.6000 154.300 TC -10.6000 154.300 4 -10.0000 152.900 TC 45 990 15 233
1967314S05163 1968 135 SP EA ANNIE 1967-11-12 15:00:00 TS -10.7602 152.887 983 bom main 241 183 P_____O__PP_P_ SH011968 -11.0302 153.545 -1 -10.5000 152.200 983 -11.0302 153.545 TC -11.0309 153.494 4 -10.3997 152.455 TC 52 986 15 236
1967314S05163 1968 135 SP EA ANNIE 1967-11-12 18:00:00 TS -11.1655 152.257 main 187 148 O_____P__OP_O_ jtwc_sh SH011968 -11.4000 152.700 -1 -10.9408 151.767 981 -11.4000 152.700 TC -11.4102 152.624 4 -10.8000 152.100 TC 60 982 15 236
1967314S05163 1968 135 SP EA ANNIE 1967-11-12 21:00:00 TS -11.5947 151.639 main 149 149 P_____P__PP_P_ SH011968 -11.7702 151.853 -1 -11.4412 151.343 980 -11.7702 151.853 TC -11.7841 151.816 4 -11.2850 151.678 TC 60 981 15 234
1967314S05163 1968 135 SP EA ANNIE 1967-11-12 21:20:00 TS -11.6444 151.576 980 bom main 149 149 P_____O__PP_P_ SH011968 -11.8132 151.765 -1 -11.5000 151.300 980 -11.8132 151.765 TC -11.8273 151.736 4 -11.3417 151.632 TC 60 980 14 228
1967314S05163 1968 135 SP EA ANNIE 1967-11-12 23:00:00 TS -11.9013 151.290 980 bom main 159 159 P_____O__PP_P_ SH011968 -12.0440 151.379 -1 -11.8000 151.100 980 -12.0440 151.379 TC -12.0537 151.376 4 -11.6281 151.416 TC 60 980 13 225
1967314S05163 1968 135 SP EA ANNIE 1967-11-13 00:00:00 TS -12.0627 151.147 main 173 173 O_____P__OO_O_ jtwc_sh SH011968 -12.2000 151.200 -1 -11.9763 150.981 980 -12.2000 151.200 TC -12.2000 151.200 4 -11.8000 151.300 TC 60 980 12 212
1967314S05163 1968 135 SP EA ANNIE 1967-11-13 03:00:00 TS -12.6038 150.848 main 217 217 P_____P__PP_P_ SH011968 -12.7771 150.930 -1 -12.4881 150.644 980 -12.7771 150.930 TC -12.7638 150.904 4 -12.2999 151.020 TC 60 980 12 202
1967314S05163 1968 135 SP EA ANNIE 1967-11-13 06:00:00 TS -13.1651 150.696 main 281 281 O_____P__OP_O_ jtwc_sh SH011968 -13.4000 150.900 -1 -12.9829 150.373 980 -13.4000 150.900 TC -13.3708 150.814 4 -12.8000 150.800 TC 60 980 11 192
1967314S05163 1968 135 SP EA ANNIE 1967-11-13 09:00:00 TS -13.7088 150.613 main 336 336 P_____P__PP_P_ SH011968 -13.9800 150.920 -1 -13.4718 150.217 980 -13.9800 150.920 TC -13.9675 150.867 4 -13.3150 150.533 TC 60 980 11 185
1967314S05163 1968 135 SP EA ANNIE 1967-11-13 11:00:00 TS -14.0504 150.617 980 bom main 381 381 P_____O__PP_P_ SH011968 -14.3364 150.973 -1 -13.8000 150.200 980 -14.3364 150.973 TC -14.3329 150.951 4 -13.6447 150.419 TC 60 980 10 178
1967314S05163 1968 135 SP EA ANNIE 1967-11-13 12:00:00 TS -14.2120 150.636 main 392 392 O_____P__OO_O_ jtwc_sh SH011968 -14.5000 151.000 -1 -13.9721 150.216 980 -14.5000 151.000 TC -14.5000 151.000 4 -13.8000 150.400 TC 60 980 9 173
1967314S05163 1968 135 SP EA ANNIE 1967-11-13 14:00:00 TS -14.5130 150.672 980 bom main 426 426 P_____O__PP_P_ SH011968 -14.8066 151.006 -1 -14.3000 150.300 980 -14.8066 151.006 TC -14.7942 151.015 4 -14.0879 150.459 TC 60 980 9 171
1967314S05163 1968 135 SP EA ANNIE 1967-11-13 15:00:00 TS -14.6510 150.705 main 449 449 P_____P__PP_P_ SH011968 -14.9449 151.013 -1 -14.4480 150.350 980 -14.9449 151.013 TC -14.9286 151.033 4 -14.2225 150.525 TC 60 980 8 159
1967314S05163 1968 135 SP EA ANNIE 1967-11-13 18:00:00 TS -15.0165 150.875 main 484 484 O_____P__OP_O_ jtwc_sh SH011968 -15.3000 151.100 -1 -14.8265 150.573 980 -15.3000 151.100 TC -15.2837 151.140 4 -14.6000 150.800 TC 60 980 8 148
1967314S05163 1968 135 SP EA ANNIE 1967-11-13 21:00:00 TS -15.3285 151.140 main 520 520 P_____P__PP_P_ SH011968 -15.5873 151.318 -1 -15.1282 150.909 980 -15.5873 151.318 TC -15.5720 151.352 4 -14.9797 151.033 TC 60 980 8 134
1967314S05163 1968 135 SP EA ANNIE 1967-11-13 23:00:00 TS -15.5025 151.392 980 bom main 548 548 P_____O__PP_P_ SH011968 -15.7358 151.553 -1 -15.3000 151.200 980 4 -15.7358 151.553 TC -15.7303 151.567 4 -15.2029 151.255 TC 60 980 9 123
1967314S05163 1968 135 SP EA ANNIE 1967-11-14 00:00:00 TS -15.5810 151.542 main 561 561 O_____P__OO_O_ jtwc_sh SH011968 -15.8000 151.700 -1 -15.3862 151.354 980 -15.8000 151.700 TC -15.8000 151.700 4 -15.3000 151.400 TC 60 980 11 113
1967314S05163 1968 135 SP EA ANNIE 1967-11-14 03:00:00 TS -15.7853 152.086 main 599 599 P_____P__PP_P_ SH011968 -15.9725 152.240 -1 -15.6099 151.899 980 -15.9725 152.240 TC -15.9952 152.201 4 -15.5227 151.998 TC 60 980 12 107
1967314S05163 1968 135 SP EA ANNIE 1967-11-14 06:00:00 TS -15.9449 152.745 main 631 631 O_____P__OP_O_ jtwc_sh SH011968 -16.1000 152.900 -1 -15.7992 152.549 980 -16.1000 152.900 TC -16.1332 152.835 4 -15.7000 152.700 TC 60 980 13 103
1967314S05163 1968 135 SP EA ANNIE 1967-11-14 09:00:00 TS -16.0945 153.439 main 675 675 P_____P__PP_P_ SH011968 -16.2224 153.585 -1 -15.9768 153.280 980 -16.2224 153.585 TC -16.2294 153.551 4 -15.8995 153.320 TC 60 980 14 102
1967314S05163 1968 135 SP EA ANNIE 1967-11-14 11:00:00 TS -16.1850 153.928 980 bom main 707 715 P_____O__PP_P_ SH011968 -16.2806 154.061 -1 -16.1000 153.800 980 -16.2806 154.061 TC -16.2783 154.050 4 -16.0330 153.761 TC 60 980 14 101
1967314S05163 1968 135 SP EA ANNIE 1967-11-14 12:00:00 TS -16.2284 154.176 main 731 731 O_____P__OO_O_ jtwc_sh SH011968 -16.3000 154.300 -1 -16.1704 154.057 980 -16.3000 154.300 TC -16.3000 154.300 4 -16.1000 154.000 TC 60 980 14 99
1967314S05163 1968 135 SP EA ANNIE 1967-11-14 15:00:00 TS -16.3299 154.916 main 783 783 P_____P__PP_P_ SH011968 -16.2997 154.993 -1 -16.3867 154.871 980 -16.2997 154.993 TC -16.2874 154.919 4 -16.2925 154.820 TC 60 980 15 98
1967314S05163 1968 135 SP EA ANNIE 1967-11-14 18:00:00 TS -16.4355 155.691 main 844 835 O_____P__OP_O_ jtwc_sh SH011968 -16.3000 155.700 -1 -16.6104 155.731 980 -16.3000 155.700 TC -16.2678 155.570 4 -16.5000 155.700 TC 60 980 15 99
1967314S05163 1968 135 SP EA ANNIE 1967-11-14 21:00:00 TS -16.5683 156.475 main 841 827 P_____P__PP_P_ SH011968 -16.3240 156.376 -1 -16.8415 156.613 980 -16.3240 156.376 TC -16.3145 156.311 4 -16.7422 156.550 TC 60 980 16 101
1967314S05163 1968 135 SP EA ANNIE 1967-11-14 23:00:00 TS -16.6971 157.034 980 bom main 829 807 P_____O__PP_P_ SH011968 -16.4151 156.897 -1 -17.0000 157.200 980 -16.4151 156.897 TC -16.4183 156.883 4 -16.9138 157.117 TC 60 980 17 104
1967314S05163 1968 135 SP EA ANNIE 1967-11-15 00:00:00 TS -16.7797 157.329 main 807 698 O_____P__OO_O_ jtwc_sh SH011968 -16.5000 157.200 -1 -17.0781 157.476 980 -16.5000 157.200 TC -16.5000 157.200 4 -17.0000 157.400 TC 60 980 19 109
1967314S05163 1968 135 SP EA ANNIE 1967-11-15 03:00:00 TS -17.1121 158.311 main 698 585 P_____P__PP_P_ SH011968 -16.9249 158.310 -1 -17.3178 158.302 980 -16.9249 158.310 TC -16.9265 158.369 4 -17.2496 158.250 TC 60 980 21 111
1967314S05163 1968 135 SP EA ANNIE 1967-11-15 06:00:00 TS -17.5199 159.378 main 576 463 O_____P__OP_O_ jtwc_sh SH011968 -17.5000 159.600 -1 -17.5661 159.137 981 -17.5000 159.600 TC -17.4860 159.683 4 -17.5000 159.100 TC 60 981 22 112
1967314S05163 1968 135 SP MM ANNIE 1967-11-15 09:00:00 TS -17.9522 160.492 main 448 376 P_____P__PP_P_ SH011968 -18.1083 160.994 -1 -17.8235 160.000 981 -18.1083 160.994 TC -18.1017 161.032 4 -17.7493 159.928 TC 60 981 23 112
1967314S05163 1968 135 SP MM ANNIE 1967-11-15 11:00:00 TS -18.2420 161.229 982 bom main 376 337 P_____O__PP_P_ SH011968 -18.5123 161.893 -1 -18.0000 160.600 982 -18.5123 161.893 TC -18.5069 161.894 4 -17.9163 160.500 TC 60 981 22 112
1967314S05163 1968 135 SP MM ANNIE 1967-11-15 12:00:00 TS -18.3754 161.584 main 329 237 O_____P__OO_O_ jtwc_sh SH011968 -18.7000 162.300 -1 -18.0527 160.902 982 -18.7000 162.300 TC -18.7000 162.300 4 -18.0000 160.800 TC 60 982 20 111
1967314S05163 1968 135 SP MM ANNIE 1967-11-15 15:00:00 TS -18.7170 162.546 main 237 152 P_____P__PP_P_ SH011968 -19.1708 163.261 -1 -18.2020 161.836 984 -19.1708 163.261 TC -19.1117 163.281 4 -18.2423 161.778 TC 57 984 19 111
1967314S05163 1968 135 SP MM ANNIE 1967-11-15 18:00:00 TS -19.0571 163.477 main 138 91 O_____P__OP_O_ jtwc_sh SH011968 -19.6000 164.100 -1 -18.4056 162.818 986 -19.6000 164.100 TC -19.5090 164.169 4 -18.5000 162.800 TC 55 986 19 112
1967314S05163 1968 135 SP MM ANNIE 1967-11-15 21:00:00 TS -19.4329 164.462 main 98 84 P_____P__PP_P_ SH011968 -20.0116 165.014 -1 -18.7498 163.862 988 -20.0116 165.014 TC -19.9522 165.048 4 -18.7165 163.772 TC 50 988 21 114
1967314S05163 1968 135 SP MM ANNIE 1967-11-15 23:00:00 TS -19.7505 165.155 990 bom main 91 91 P_____O__PP_P_ SH011968 -20.3209 165.659 -1 -19.1000 164.600 990 -20.3209 165.659 TC -20.3022 165.669 4 -18.9397 164.445 TC 46 989 23 118
1967314S05163 1968 135 SP MM ANNIE 1967-11-16 00:00:00 TS -19.9879 165.557 main 98 94 O_____P__OO_O_ jtwc_sh SH011968 -20.5000 166.000 -1 -19.3194 164.983 990 -20.5000 166.000 TC -20.5000 166.000 4 -19.1000 164.800 TC 45 990 27 123
1967314S05163 1968 135 SP MM ANNIE 1967-11-16 03:00:00 TS -20.7420 166.757 main 115 106 P_____P__PP_P_ SH011968 -21.1242 167.092 -1 -20.1129 166.178 991 -21.1242 167.092 TC -21.1929 167.093 4 -19.8411 166.043 TC 45 991 28 125
1967314S05163 1968 135 SP MM ANNIE 1967-11-16 05:00:00 TS -21.3096 167.590 992 bom main 115 113 P_____O__PP_P_ SH011968 -21.6245 167.884 -1 -20.7000 167.000 992 -21.6245 167.884 TC -21.7229 167.895 4 -20.4191 166.846 TC 45 991 28 126
1967314S05163 1968 135 SP MM ANNIE 1967-11-16 06:00:00 TS -21.5546 167.965 main 123 123 O________OP_O_ jtwc_sh SH011968 -21.9000 168.300 -1 -21.9000 168.300 TC -22.0034 168.314 4 -20.7000 167.200 TC 45 992 24 127
1967314S05163 1968 135 SP MM ANNIE 1967-11-16 09:00:00 TS -22.2598 168.963 main 205 205 P________PP_P_ SH011968 -22.8150 169.615 -1 -22.8150 169.615 TC -22.8872 169.629 4 -21.3910 167.977 TC 45 22 129
1967314S05163 1968 135 SP MM ANNIE 1967-11-16 12:00:00 TS -22.9500 169.800 main 295 245 O________OO_O_ jtwc_sh SH011968 -23.8000 171.000 -1 -23.8000 171.000 TC -23.8000 171.000 4 -22.1000 168.600 TC 45 7 157
1967314S05163 1968 135 SP MM ANNIE 1967-11-16 15:00:00 TS -22.9163 169.272 main 245 245 ____________P_ SH011968 -1 TC 4 -22.9163 169.272 TC 42 9 168
1967314S05163 1968 135 SP MM ANNIE 1967-11-16 18:00:00 TS -23.8000 170.000 main 349 ____________O_ -1 4 -23.8000 170.000 TC 40 22 143

デジタル台風データ・検索

IBTrACS Databaseについて

本データベースは、米国NOAAが公開する1842年以降の世界の熱帯低気圧のベストトラックデータアーカイブInternational Best Track Archive for Climate Stewardship (IBTrACS)を、ウェブで閲覧しやすい形式に変換したものです。

最終更新日:2021-12-03